createdAt,value
2023-04-18T00:02:17.543Z,99409.91
2023-04-18T00:04:46.625Z,99413.14
2023-04-18T00:07:15.638Z,99413.08
2023-04-18T00:09:44.632Z,99407.64
2023-04-18T00:12:13.028Z,99406.98
2023-04-18T00:14:41.432Z,99408.00
2023-04-18T00:17:09.665Z,99408.21
2023-04-18T00:19:37.800Z,99407.10
2023-04-18T00:22:07.292Z,99407.23
2023-04-18T00:24:35.032Z,99408.23
2023-04-18T00:27:03.529Z,99407.15
2023-04-18T00:29:31.965Z,99404.98
2023-04-18T00:31:59.672Z,99406.79
2023-04-18T00:34:27.385Z,99404.67
2023-04-18T00:36:55.162Z,99406.07
2023-04-18T00:39:22.948Z,99408.45
2023-04-18T00:41:51.197Z,99407.74
2023-04-18T00:44:19.529Z,99409.70
2023-04-18T00:46:47.357Z,99408.88
2023-04-18T00:49:15.720Z,99408.52
2023-04-18T00:51:43.827Z,99408.01
2023-04-18T00:54:13.679Z,99411.52
2023-04-18T00:56:42.547Z,99410.14
2023-04-18T00:59:11.466Z,99413.02
2023-04-18T01:01:40.321Z,99408.52
2023-04-18T01:04:08.294Z,99409.34
2023-04-18T01:06:37.135Z,99410.70
2023-04-18T01:09:05.758Z,99409.42
2023-04-18T01:11:34.148Z,99409.40
2023-04-18T01:14:03.819Z,99409.22
2023-04-18T01:16:36.979Z,99410.52
2023-04-18T01:19:05.855Z,99414.59
2023-04-18T01:21:36.186Z,99412.54
2023-04-18T01:24:08.489Z,99410.84
2023-04-18T01:26:36.702Z,99410.68
2023-04-18T01:29:05.860Z,99410.22
2023-04-18T01:31:36.282Z,99409.39
2023-04-18T01:34:05.207Z,99417.92
2023-04-18T01:36:33.720Z,99415.15
2023-04-18T01:39:01.589Z,99415.02
2023-04-18T01:41:32.872Z,99410.16
2023-04-18T01:44:01.685Z,99410.62
2023-04-18T01:46:29.629Z,99413.05
2023-04-18T01:48:59.650Z,99409.67
2023-04-18T01:51:28.036Z,99410.17
2023-04-18T01:53:55.795Z,99409.38
2023-04-18T01:56:24.025Z,99409.34
2023-04-18T01:58:52.344Z,99411.88
2023-04-18T02:01:20.435Z,99414.94
2023-04-18T02:03:48.496Z,99414.09
2023-04-18T02:06:16.517Z,99410.35
2023-04-18T02:08:44.689Z,99415.54
2023-04-18T02:11:13.008Z,99411.83
2023-04-18T02:13:40.788Z,99416.45
2023-04-18T02:16:13.123Z,99413.91
2023-04-18T02:18:43.409Z,99414.08
2023-04-18T02:21:12.048Z,99417.77
2023-04-18T02:23:40.690Z,99420.60
2023-04-18T02:26:08.902Z,99420.52
2023-04-18T02:28:39.243Z,99417.96
2023-04-18T02:31:07.536Z,99418.05
2023-04-18T02:33:35.263Z,99421.18
2023-04-18T02:36:03.788Z,99417.20
2023-04-18T02:38:32.397Z,99416.27
2023-04-18T02:41:00.116Z,99416.17
2023-04-18T02:43:28.022Z,99416.80
2023-04-18T02:45:56.205Z,99415.16
2023-04-18T02:48:24.317Z,99420.02
2023-04-18T02:50:52.541Z,99424.52
2023-04-18T02:53:24.042Z,99425.86
2023-04-18T02:55:51.705Z,99428.27
2023-04-18T02:58:19.420Z,99431.02
2023-04-18T03:00:47.224Z,99427.77
2023-04-18T03:03:15.000Z,99428.55
2023-04-18T03:05:43.240Z,99433.58
2023-04-18T03:08:12.106Z,99433.12
2023-04-18T03:10:40.208Z,99435.33
2023-04-18T03:13:07.944Z,99431.42
2023-04-18T03:15:35.845Z,99438.10
2023-04-18T03:18:03.652Z,99436.11
2023-04-18T03:20:31.609Z,99437.13
2023-04-18T03:22:59.305Z,99443.42
2023-04-18T03:25:26.993Z,99442.80
2023-04-18T03:27:54.659Z,99441.14
2023-04-18T03:30:22.613Z,99445.28
2023-04-18T03:32:50.372Z,99445.73
2023-04-18T03:35:18.449Z,99448.30
2023-04-18T03:37:46.208Z,99450.44
2023-04-18T03:40:14.096Z,99453.95
2023-04-18T03:42:41.766Z,99453.96
2023-04-18T03:45:09.867Z,99460.84
2023-04-18T03:47:38.202Z,99463.83
2023-04-18T03:50:06.483Z,99465.94
2023-04-18T03:52:34.188Z,99464.16
2023-04-18T03:55:01.908Z,99462.30
2023-04-18T03:57:29.648Z,99457.77
2023-04-18T03:59:57.399Z,99458.96
2023-04-18T04:02:26.441Z,99460.48
2023-04-18T04:04:54.321Z,99463.42
2023-04-18T04:07:22.204Z,99463.14
2023-04-18T04:09:49.935Z,99459.65
2023-04-18T04:12:17.744Z,99459.59
2023-04-18T04:14:46.031Z,99463.05
2023-04-18T04:17:13.774Z,99464.67
2023-04-18T04:19:41.504Z,99468.76
2023-04-18T04:22:09.611Z,99476.22
2023-04-18T04:24:38.764Z,99481.45
2023-04-18T04:27:06.485Z,99486.83
2023-04-18T04:29:35.505Z,99487.83
2023-04-18T04:32:05.753Z,99488.17
2023-04-18T04:34:34.624Z,99495.48
2023-04-18T04:37:03.182Z,99497.77
2023-04-18T04:39:30.894Z,99498.66
2023-04-18T04:41:58.581Z,99502.45
2023-04-18T04:44:27.049Z,99509.56
2023-04-18T04:46:54.812Z,99510.88
2023-04-18T04:49:22.587Z,99509.48
2023-04-18T04:51:50.332Z,99511.17
2023-04-18T04:54:18.051Z,99511.00
2023-04-18T04:56:46.225Z,99515.01
2023-04-18T04:59:14.620Z,99514.65
2023-04-18T05:01:42.449Z,99515.54
2023-04-18T05:04:10.466Z,99513.42
2023-04-18T05:06:40.291Z,99513.29
2023-04-18T05:09:08.269Z,99511.97
2023-04-18T05:11:36.023Z,99514.03
2023-04-18T05:14:04.420Z,99518.16
2023-04-18T05:16:32.224Z,99520.99
2023-04-18T05:19:00.033Z,99524.27
2023-04-18T05:21:28.729Z,99527.30
2023-04-18T05:23:56.452Z,99523.69
2023-04-18T05:26:25.255Z,99523.79
2023-04-18T05:28:53.721Z,99526.36
2023-04-18T05:31:21.816Z,99533.09
2023-04-18T05:33:49.581Z,99532.11
2023-04-18T05:36:17.399Z,99529.53
2023-04-18T05:38:45.095Z,99532.45
2023-04-18T05:41:13.312Z,99538.96
2023-04-18T05:43:42.975Z,99545.08
2023-04-18T05:46:13.075Z,99543.64
2023-04-18T05:48:40.795Z,99541.40
2023-04-18T05:51:10.586Z,99544.84
2023-04-18T05:53:39.394Z,99541.52
2023-04-18T05:56:07.700Z,99540.29
2023-04-18T05:58:35.918Z,99540.33
2023-04-18T06:01:03.673Z,99543.22
2023-04-18T06:03:31.597Z,99544.61
2023-04-18T06:06:00.012Z,99545.70
2023-04-18T06:08:28.190Z,99545.08
2023-04-18T06:10:56.419Z,99543.02
2023-04-18T06:13:24.217Z,99539.53
2023-04-18T06:15:52.010Z,99538.20
2023-04-18T06:18:19.766Z,99543.41
2023-04-18T06:20:48.001Z,99542.57
2023-04-18T06:23:16.809Z,99543.81
2023-04-18T06:25:44.576Z,99543.96
2023-04-18T06:28:12.360Z,99545.14
2023-04-18T06:30:40.168Z,99546.88
2023-04-18T06:33:10.616Z,99541.20
2023-04-18T06:35:38.996Z,99536.48
2023-04-18T06:38:06.860Z,99530.91
2023-04-18T06:40:35.217Z,99535.16
2023-04-18T06:43:03.148Z,99539.63
2023-04-18T06:45:31.614Z,99544.60
2023-04-18T06:48:05.539Z,99545.31
2023-04-18T06:50:33.273Z,99539.15
2023-04-18T06:53:01.221Z,99543.04
2023-04-18T06:55:29.852Z,99545.36
2023-04-18T06:57:57.654Z,99541.56
2023-04-18T07:00:25.848Z,99540.38
2023-04-18T07:02:54.268Z,99542.83
2023-04-18T07:05:22.273Z,99546.85
2023-04-18T07:07:50.018Z,99546.82
2023-04-18T07:10:18.337Z,99549.46
2023-04-18T07:12:47.659Z,99553.16
2023-04-18T07:15:15.573Z,99550.44
2023-04-18T07:17:43.875Z,99553.62
2023-04-18T07:20:13.091Z,99556.35
2023-04-18T07:22:42.365Z,99556.02
2023-04-18T07:25:10.720Z,99553.77
2023-04-18T07:27:38.574Z,99558.61
2023-04-18T07:30:07.451Z,99558.89
2023-04-18T07:32:35.907Z,99558.06
2023-04-18T07:35:04.467Z,99557.05
2023-04-18T07:37:32.819Z,99558.25
2023-04-18T07:40:01.077Z,99558.59
2023-04-18T07:42:28.811Z,99556.20
2023-04-18T07:44:58.744Z,99557.94
2023-04-18T07:47:30.419Z,99559.98
2023-04-18T07:49:58.969Z,99557.52
2023-04-18T07:52:27.078Z,99557.79
2023-04-18T07:54:54.831Z,99556.40
2023-04-18T07:57:22.616Z,99557.36
2023-04-18T07:59:53.812Z,99553.71
2023-04-18T08:02:21.737Z,99556.42
2023-04-18T08:04:52.213Z,99554.20
2023-04-18T08:07:20.209Z,99556.71
2023-04-18T08:09:48.418Z,99558.30
2023-04-18T08:14:44.578Z,99557.61
2023-04-18T08:17:12.810Z,99556.48
2023-04-18T08:19:40.513Z,99555.95
2023-04-18T08:22:10.386Z,99554.81
2023-04-18T08:24:38.831Z,99559.23
2023-04-18T08:27:06.964Z,99560.31
2023-04-18T08:29:35.095Z,99563.08
2023-04-18T08:32:07.219Z,99559.36
2023-04-18T08:34:36.975Z,99560.69
2023-04-18T08:37:04.804Z,99562.37
2023-04-18T08:39:32.663Z,99556.44
2023-04-18T08:42:01.832Z,99558.83
2023-04-18T08:44:30.675Z,99560.81
2023-04-18T08:46:59.646Z,99564.55
2023-04-18T08:49:28.533Z,99559.17
2023-04-18T08:51:58.014Z,99564.56
2023-04-18T08:54:27.401Z,99566.27
2023-04-18T08:57:08.833Z,99565.42
2023-04-18T08:59:37.142Z,99563.51
2023-04-18T09:02:09.067Z,99566.42
2023-04-18T09:04:44.970Z,99566.52
2023-04-18T09:07:14.441Z,99562.20
2023-04-18T09:09:54.513Z,99559.52
2023-04-18T09:12:29.693Z,99554.92
2023-04-18T09:15:20.493Z,99559.64
2023-04-18T09:17:51.077Z,99555.27
2023-04-18T09:20:26.766Z,99559.15
2023-04-18T09:22:57.764Z,99554.88
2023-04-18T09:25:34.566Z,99554.27
2023-04-18T09:28:14.518Z,99551.12
2023-04-18T09:30:43.261Z,99550.46
2023-04-18T09:33:11.537Z,99550.90
2023-04-18T09:35:39.321Z,99547.57
2023-04-18T09:38:07.839Z,99544.99
2023-04-18T09:40:35.793Z,99543.09
2023-04-18T09:43:19.129Z,99544.71
2023-04-18T09:45:49.103Z,99541.79
2023-04-18T09:48:17.418Z,99541.97
2023-04-18T09:50:46.608Z,99548.22
2023-04-18T09:53:20.651Z,99548.10
2023-04-18T09:55:56.232Z,99546.27
2023-04-18T09:58:31.281Z,99540.92
2023-04-18T10:00:59.723Z,99536.63
2023-04-18T10:03:34.802Z,99537.09
2023-04-18T10:06:03.623Z,99533.56
2023-04-18T10:08:32.869Z,99529.54
2023-04-18T10:11:01.449Z,99531.39
2023-04-18T10:13:30.382Z,99527.48
2023-04-18T10:15:58.872Z,99525.52
2023-04-18T10:18:26.786Z,99532.12
2023-04-18T10:21:03.393Z,99527.20
2023-04-18T10:23:37.660Z,99520.98
2023-04-18T10:26:11.228Z,99520.23
2023-04-18T10:28:54.873Z,99524.00
2023-04-18T10:31:24.736Z,99521.06
2023-04-18T10:34:04.750Z,99523.37
2023-04-18T10:36:33.989Z,99527.02
2023-04-18T10:39:21.056Z,99518.02
2023-04-18T10:41:51.060Z,99515.89
2023-04-18T10:44:22.358Z,99516.52
2023-04-18T10:46:51.199Z,99515.00
2023-04-18T10:49:31.186Z,99514.00
2023-04-18T10:52:02.003Z,99510.87
2023-04-18T10:54:58.501Z,99510.40
2023-04-18T10:57:38.949Z,99517.01
2023-04-18T11:00:11.306Z,99510.60
2023-04-18T11:02:40.431Z,99507.05
2023-04-18T11:05:09.025Z,99504.41
2023-04-18T11:07:46.229Z,99503.72
2023-04-18T11:10:20.118Z,99501.35
2023-04-18T11:12:48.419Z,99498.33
2023-04-18T11:15:24.364Z,99496.55
2023-04-18T11:18:05.185Z,99500.94
2023-04-18T11:20:41.771Z,99499.33
2023-04-18T11:23:23.918Z,99496.70
2023-04-18T11:25:54.202Z,99497.71
2023-04-18T11:28:24.831Z,99493.48
2023-04-18T11:30:53.113Z,99492.89
2023-04-18T11:33:21.537Z,99490.54
2023-04-18T11:35:49.275Z,99487.20
2023-04-18T11:38:17.213Z,99489.68
2023-04-18T11:40:49.119Z,99492.75
2023-04-18T11:43:25.825Z,99486.21
2023-04-18T11:45:56.304Z,99480.75
2023-04-18T11:48:34.525Z,99480.23
2023-04-18T11:51:02.291Z,99480.79
2023-04-18T11:53:34.833Z,99479.48
2023-04-18T11:56:03.828Z,99477.60
2023-04-18T11:58:34.928Z,99480.61
2023-04-18T12:01:23.982Z,99477.37
2023-04-18T12:04:05.865Z,99471.52
2023-04-18T12:06:51.336Z,99471.35
2023-04-18T12:09:21.909Z,99469.11
2023-04-18T12:12:01.652Z,99466.20
2023-04-18T12:14:30.827Z,99465.10
2023-04-18T12:16:58.625Z,99464.41
2023-04-18T12:19:28.449Z,99461.07
2023-04-18T12:22:00.688Z,99462.19
2023-04-18T12:24:30.013Z,99452.77
2023-04-18T12:26:58.672Z,99455.40
2023-04-18T12:29:28.188Z,99450.80
2023-04-18T12:31:56.103Z,99447.55
2023-04-18T12:34:24.958Z,99447.22
2023-04-18T12:36:53.858Z,99448.20
2023-04-18T12:39:21.646Z,99444.16
2023-04-18T12:41:50.011Z,99445.46
2023-04-18T12:44:18.360Z,99442.32
2023-04-18T12:46:46.692Z,99437.80
2023-04-18T12:49:14.972Z,99434.09
2023-04-18T12:51:43.719Z,99433.22
2023-04-18T12:54:11.575Z,99436.66
2023-04-18T12:56:39.455Z,99437.24
2023-04-18T12:59:07.156Z,99437.23
2023-04-18T13:01:35.713Z,99434.41
2023-04-18T13:04:12.358Z,99428.42
2023-04-18T13:06:40.926Z,99421.75
2023-04-18T13:09:09.415Z,99423.72
2023-04-18T13:11:37.241Z,99417.54
2023-04-18T13:14:05.585Z,99413.59
2023-04-18T13:16:33.996Z,99406.09
2023-04-18T13:19:01.712Z,99408.35
2023-04-18T13:21:29.485Z,99406.99
2023-04-18T13:23:57.513Z,99409.89
2023-04-18T13:26:25.803Z,99414.40
2023-04-18T13:28:54.264Z,99409.51
2023-04-18T13:31:22.613Z,99408.46
2023-04-18T13:33:50.326Z,99400.95
2023-04-18T13:36:18.153Z,99403.68
2023-04-18T13:38:46.614Z,99399.48
2023-04-18T13:41:14.342Z,99393.86
2023-04-18T13:43:42.779Z,99397.10
2023-04-18T13:46:11.862Z,99397.23
2023-04-18T13:48:39.596Z,99398.35
2023-04-18T13:51:07.475Z,99397.59
2023-04-18T13:53:35.614Z,99397.11
2023-04-18T13:56:03.507Z,99399.52
2023-04-18T13:58:31.318Z,99404.04
2023-04-18T14:00:59.595Z,99401.71
2023-04-18T14:03:29.380Z,99401.88
2023-04-18T14:05:58.945Z,99402.80
2023-04-18T14:08:26.684Z,99399.52
2023-04-18T14:10:54.777Z,99397.70
2023-04-18T14:13:22.581Z,99399.83
2023-04-18T14:15:52.984Z,99396.80
2023-04-18T14:18:24.757Z,99398.86
2023-04-18T14:20:52.436Z,99395.23
2023-04-18T14:23:22.516Z,99396.62
2023-04-18T14:25:50.260Z,99399.29
2023-04-18T14:28:21.591Z,99393.48
2023-04-18T14:30:49.850Z,99397.89
2023-04-18T14:33:18.423Z,99392.01
2023-04-18T14:35:46.254Z,99393.75
2023-04-18T14:38:14.129Z,99393.05
2023-04-18T14:40:42.174Z,99391.05
2023-04-18T14:43:10.410Z,99389.50
2023-04-18T14:45:38.807Z,99387.12
2023-04-18T14:48:08.125Z,99386.93
2023-04-18T14:50:38.740Z,99381.89
2023-04-18T14:53:07.123Z,99387.86
2023-04-18T14:55:35.026Z,99387.73
2023-04-18T14:58:04.118Z,99385.48
2023-04-18T15:00:33.278Z,99380.80
2023-04-18T15:03:01.482Z,99383.59
2023-04-18T15:05:29.588Z,99383.36
2023-04-18T15:07:58.116Z,99382.86
2023-04-18T15:10:26.320Z,99380.73
2023-04-18T15:12:54.512Z,99376.98
2023-04-18T15:15:22.711Z,99374.70
2023-04-18T15:17:50.512Z,99373.94
2023-04-18T15:20:18.381Z,99373.67
2023-04-18T15:22:46.757Z,99368.61
2023-04-18T15:25:16.818Z,99368.16
2023-04-18T15:27:44.512Z,99367.63
2023-04-18T15:30:12.568Z,99370.27
2023-04-18T15:32:42.327Z,99370.66
2023-04-18T15:35:11.332Z,99368.88
2023-04-18T15:37:39.741Z,99365.02
2023-04-18T15:40:10.490Z,99363.98
2023-04-18T15:42:39.482Z,99358.09
2023-04-18T15:45:08.117Z,99358.74
2023-04-18T15:47:36.333Z,99358.81
2023-04-18T15:50:05.018Z,99359.61
2023-04-18T15:52:33.443Z,99360.98
2023-04-18T15:55:01.958Z,99363.73
2023-04-18T15:57:29.872Z,99364.52
2023-04-18T15:59:58.642Z,99356.95
2023-04-18T16:02:27.397Z,99353.89
2023-04-18T16:04:55.711Z,99355.14
2023-04-18T16:07:24.104Z,99351.44
2023-04-18T16:09:51.836Z,99352.48
2023-04-18T16:12:19.539Z,99350.58
2023-04-18T16:14:47.257Z,99352.83
2023-04-18T16:17:14.988Z,99352.15
2023-04-18T16:19:43.992Z,99353.34
2023-04-18T16:22:12.499Z,99350.58
2023-04-18T16:24:42.197Z,99353.66
2023-04-18T16:27:10.153Z,99354.89
2023-04-18T16:29:37.870Z,99354.36
2023-04-18T16:32:09.375Z,99353.20
2023-04-18T16:34:37.621Z,99356.30
2023-04-18T16:37:05.625Z,99354.45
2023-04-18T16:39:33.359Z,99360.89
2023-04-18T16:42:01.529Z,99362.25
2023-04-18T16:44:30.330Z,99362.92
2023-04-18T16:46:58.743Z,99368.63
2023-04-18T16:49:26.610Z,99362.97
2023-04-18T16:51:54.391Z,99360.05
2023-04-18T16:54:22.377Z,99362.27
2023-04-18T16:56:50.080Z,99360.33
2023-04-18T16:59:18.478Z,99359.44
2023-04-18T17:01:47.029Z,99363.96
2023-04-18T17:04:15.581Z,99363.02
2023-04-18T17:06:43.927Z,99363.21
2023-04-18T17:09:14.837Z,99365.16
2023-04-18T17:11:42.708Z,99364.40
2023-04-18T17:14:11.632Z,99365.77
2023-04-18T17:16:41.417Z,99366.08
2023-04-18T17:19:10.337Z,99368.91
2023-04-18T17:21:38.275Z,99366.69
2023-04-18T17:24:07.260Z,99373.04
2023-04-18T17:26:36.672Z,99371.55
2023-04-18T17:29:04.827Z,99374.15
2023-04-18T17:31:33.136Z,99371.22
2023-04-18T17:34:01.121Z,99370.55
2023-04-18T17:36:28.900Z,99371.77
2023-04-18T17:38:58.479Z,99372.08
2023-04-18T17:41:26.198Z,99372.74
2023-04-18T17:43:54.526Z,99373.02
2023-04-18T17:46:22.892Z,99373.98
2023-04-18T17:48:50.728Z,99374.21
2023-04-18T17:51:19.399Z,99379.56
2023-04-18T17:53:47.910Z,99384.08
2023-04-18T17:56:15.687Z,99382.67
2023-04-18T17:58:43.991Z,99382.02
2023-04-18T18:01:16.469Z,99384.73
2023-04-18T18:03:45.181Z,99384.52
2023-04-18T18:06:14.269Z,99383.57
2023-04-18T18:08:42.966Z,99384.96
2023-04-18T18:11:11.079Z,99387.60
2023-04-18T18:13:39.551Z,99384.41
2023-04-18T18:16:09.132Z,99385.39
2023-04-18T18:18:37.429Z,99381.23
2023-04-18T18:21:05.235Z,99381.19
2023-04-18T18:23:33.017Z,99380.98
2023-04-18T18:26:00.838Z,99380.11
2023-04-18T18:28:29.215Z,99380.06
2023-04-18T18:30:57.814Z,99380.59
2023-04-18T18:33:25.648Z,99381.61
2023-04-18T18:35:53.719Z,99379.98
2023-04-18T18:38:21.830Z,99381.98
2023-04-18T18:40:49.545Z,99381.66
2023-04-18T18:43:17.767Z,99373.58
2023-04-18T18:45:46.205Z,99372.91
2023-04-18T18:48:15.521Z,99374.77
2023-04-18T18:50:43.298Z,99370.56
2023-04-18T18:53:11.230Z,99369.02
2023-04-18T18:55:38.971Z,99370.20
2023-04-18T18:58:08.117Z,99369.05
2023-04-18T19:00:36.466Z,99368.02
2023-04-18T19:03:04.388Z,99366.49
2023-04-18T19:05:32.378Z,99366.48
2023-04-18T19:08:04.125Z,99364.90
2023-04-18T19:10:31.851Z,99365.34
2023-04-18T19:13:00.427Z,99364.52
2023-04-18T19:15:28.749Z,99363.45
2023-04-18T19:17:56.637Z,99361.00
2023-04-18T19:20:24.565Z,99363.61
2023-04-18T19:22:52.342Z,99359.08
2023-04-18T19:25:20.019Z,99360.23
2023-04-18T19:27:48.205Z,99357.38
2023-04-18T19:30:16.425Z,99356.24
2023-04-18T19:32:44.522Z,99355.32
2023-04-18T19:35:13.372Z,99354.06
2023-04-18T19:37:41.838Z,99353.30
2023-04-18T19:40:10.479Z,99352.59
2023-04-18T19:42:38.787Z,99346.17
2023-04-18T19:45:07.811Z,99345.25
2023-04-18T19:47:35.629Z,99340.29
2023-04-18T19:50:03.525Z,99347.54
2023-04-18T19:52:31.263Z,99341.67
2023-04-18T19:54:58.988Z,99340.48
2023-04-18T19:57:28.913Z,99337.46
2023-04-18T19:59:57.105Z,99338.16
2023-04-18T20:02:24.944Z,99335.86
2023-04-18T20:04:52.946Z,99330.86
2023-04-18T20:07:20.995Z,99332.61
2023-04-18T20:09:48.716Z,99331.52
2023-04-18T20:12:17.017Z,99328.31
2023-04-18T20:14:45.379Z,99324.99
2023-04-18T20:17:13.236Z,99326.23
2023-04-18T20:19:41.436Z,99325.68
2023-04-18T20:22:09.455Z,99322.50
2023-04-18T20:24:39.443Z,99321.77
2023-04-18T20:27:07.799Z,99322.84
2023-04-18T20:29:36.117Z,99315.20
2023-04-18T20:32:04.032Z,99310.93
2023-04-18T20:34:32.234Z,99308.02
2023-04-18T20:37:00.136Z,99304.05
2023-04-18T20:39:28.177Z,99303.13
2023-04-18T20:41:57.957Z,99300.62
2023-04-18T20:44:26.518Z,99299.36
2023-04-18T20:46:54.307Z,99299.00
2023-04-18T20:49:22.041Z,99296.19
2023-04-18T20:51:49.983Z,99296.08
2023-04-18T20:54:17.899Z,99293.49
2023-04-18T20:56:46.290Z,99292.09
2023-04-18T20:59:14.564Z,99293.66
2023-04-18T21:01:42.842Z,99289.81
2023-04-18T21:04:10.724Z,99291.21
2023-04-18T21:06:38.664Z,99287.41
2023-04-18T21:09:07.516Z,99283.02
2023-04-18T21:11:35.733Z,99278.27
2023-04-18T21:14:06.666Z,99275.55
2023-04-18T21:16:34.673Z,99274.52
2023-04-18T21:19:02.654Z,99269.46
2023-04-18T21:21:31.477Z,99263.05
2023-04-18T21:23:59.149Z,99264.27
2023-04-18T21:26:27.694Z,99263.31
2023-04-18T21:29:01.523Z,99259.38
2023-04-18T21:31:31.167Z,99254.93
2023-04-18T21:34:00.852Z,99254.36
2023-04-18T21:36:29.663Z,99252.83
2023-04-18T21:39:00.781Z,99252.63
2023-04-18T21:41:28.694Z,99251.90
2023-04-18T21:43:56.476Z,99249.83
2023-04-18T21:46:24.912Z,99244.90
2023-04-18T21:48:53.089Z,99238.38
2023-04-18T21:51:20.924Z,99237.16
2023-04-18T21:53:49.128Z,99235.49
2023-04-18T21:56:17.230Z,99231.75
2023-04-18T21:58:45.299Z,99229.30
2023-04-18T22:01:13.707Z,99224.22
2023-04-18T22:03:41.733Z,99225.86
2023-04-18T22:06:09.766Z,99222.14
2023-04-18T22:08:37.554Z,99223.56
2023-04-18T22:11:05.472Z,99224.63
2023-04-18T22:13:33.742Z,99220.81
2023-04-18T22:16:03.343Z,99218.95
2023-04-18T22:18:37.894Z,99218.95
2023-04-18T22:21:06.224Z,99215.52
2023-04-18T22:23:33.982Z,99212.02
2023-04-18T22:26:02.213Z,99208.38
2023-04-18T22:28:30.102Z,99208.05
2023-04-18T22:30:58.427Z,99203.32
2023-04-18T22:33:26.201Z,99199.09
2023-04-18T22:35:54.472Z,99195.70
2023-04-18T22:38:22.229Z,99191.48
2023-04-18T22:40:50.438Z,99190.36
2023-04-18T22:43:22.971Z,99189.17
2023-04-18T22:45:51.671Z,99187.75
2023-04-18T22:48:19.529Z,99184.48
2023-04-18T22:50:47.469Z,99183.33
2023-04-18T22:53:16.127Z,99181.59
2023-04-18T22:55:46.209Z,99178.42
2023-04-18T22:58:14.375Z,99174.95
2023-04-18T23:00:42.535Z,99171.33
2023-04-18T23:03:10.718Z,99165.86
2023-04-18T23:05:38.712Z,99165.01
2023-04-18T23:08:07.113Z,99160.73
2023-04-18T23:10:35.059Z,99161.98
2023-04-18T23:13:02.871Z,99156.33
2023-04-18T23:15:30.600Z,99152.39
2023-04-18T23:17:58.566Z,99152.59
2023-04-18T23:20:26.312Z,99152.96
2023-04-18T23:22:55.504Z,99148.71
2023-04-18T23:25:24.042Z,99148.27
2023-04-18T23:27:51.820Z,99142.84
2023-04-18T23:30:19.573Z,99137.78
2023-04-18T23:32:47.292Z,99135.25
2023-04-18T23:35:15.102Z,99134.27
2023-04-18T23:37:43.026Z,99132.94
2023-04-18T23:40:11.189Z,99131.73
2023-04-18T23:42:39.161Z,99129.27
2023-04-18T23:45:07.313Z,99122.58
2023-04-18T23:47:35.332Z,99122.27
2023-04-18T23:50:03.410Z,99118.73
2023-04-18T23:52:31.173Z,99116.17
2023-04-18T23:55:00.756Z,99111.13
2023-04-18T23:57:28.669Z,99110.31
2023-04-18T23:59:56.465Z,99106.70
